Time;durP1;ratioP1;P1;durP2;ratioP2;P2;SDS_P1;SDS_P2;PMS_P1;PMS_P2;Temp;Humidity;BMP_temperature;BMP_pressure;BME280_temperature;BME280_humidity;BME280_pressure;Samples;Min_cycle;Max_cycle;Signal;HPM_P1;HPM_P2
2021/11/28 00:01:43;;;;;;;12.77;5.25;;;4.80;97.80;;;2.69;100.00;98395.75;5049636;28;20095;-85
2021/11/28 00:04:13;;;;;;;12.05;5.28;;;4.80;97.80;;;2.66;100.00;98396.09;5030902;28;20040;-85
2021/11/28 00:06:51;;;;;;;12.23;4.72;;;4.80;97.90;;;2.61;100.00;98394.00;5031566;28;20049;-84
2021/11/28 00:09:33;;;;;;;11.50;4.53;;;4.80;97.90;;;2.63;100.00;98397.31;5031482;28;20048;-85
2021/11/28 00:12:23;;;;;;;7.68;4.43;;;4.80;97.90;;;2.60;100.00;98400.38;5030079;28;20052;-85
2021/11/28 00:14:55;;;;;;;10.30;4.45;;;4.80;97.80;;;2.57;100.00;98398.06;5022916;28;20051;-85
2021/11/28 00:17:24;;;;;;;12.88;4.72;;;4.80;97.90;;;2.50;100.00;98399.81;5049440;28;20044;-85
2021/11/28 00:19:51;;;;;;;11.35;5.00;;;4.80;97.90;;;2.46;100.00;98395.84;5049464;28;20141;-85
2021/11/28 00:22:19;;;;;;;10.93;4.55;;;4.80;97.90;;;2.38;100.00;98399.44;5049115;28;20045;-85
2021/11/28 00:24:46;;;;;;;12.55;4.55;;;4.80;97.70;;;2.32;100.00;98384.91;5048947;28;20079;-85
2021/11/28 00:27:15;;;;;;;13.23;4.82;;;4.70;97.70;;;2.27;100.00;98395.38;5049449;28;20533;-85
2021/11/28 00:29:43;;;;;;;14.73;5.03;;;4.70;97.70;;;2.21;100.00;98396.09;5047008;28;20069;-85
2021/11/28 00:32:12;;;;;;;13.13;5.15;;;4.70;97.70;;;2.17;100.00;98394.81;5041989;28;20504;-85
2021/11/28 00:34:40;;;;;;;11.65;4.70;;;4.70;97.80;;;2.10;100.00;98402.75;5048307;28;20442;-85
2021/11/28 00:37:08;;;;;;;10.05;4.70;;;4.60;97.50;;;2.00;100.00;98396.81;5049029;28;20036;-85
2021/11/28 00:39:35;;;;;;;14.15;4.95;;;4.60;97.50;;;1.92;100.00;98397.72;5048973;28;20041;-86
2021/11/28 00:42:06;;;;;;;14.38;4.90;;;4.60;97.30;;;1.92;100.00;98395.03;5030520;28;20685;-85
2021/11/28 00:44:34;;;;;;;11.13;4.65;;;4.50;97.40;;;1.91;100.00;98397.91;5047107;28;20049;-85
2021/11/28 00:47:02;;;;;;;9.35;4.75;;;4.50;97.70;;;1.84;100.00;98403.13;5036666;28;20045;-85
2021/11/28 00:49:29;;;;;;;9.57;4.65;;;4.50;97.60;;;1.71;100.00;98395.72;5036986;28;20124;-85
2021/11/28 00:51:57;;;;;;;12.93;4.82;;;4.40;97.40;;;1.65;100.00;98395.59;5027431;28;20480;-85
2021/11/28 00:54:27;;;;;;;13.15;5.18;;;4.40;97.30;;;1.66;100.00;98399.97;5010771;28;20470;-84
2021/11/28 00:56:55;;;;;;;10.77;4.90;;;4.30;97.50;;;1.61;100.00;98402.34;5018881;28;20111;-84
2021/11/28 00:59:23;;;;;;;10.52;4.72;;;4.30;97.60;;;1.63;100.00;98408.34;5030766;28;20421;-85
2021/11/28 01:01:52;;;;;;;11.63;4.90;;;4.20;97.60;;;1.59;100.00;98409.72;5048462;28;20493;-85
2021/11/28 01:04:19;;;;;;;14.63;4.88;;;4.20;97.60;;;1.60;100.00;98406.88;5047128;28;20132;-85
2021/11/28 01:06:46;;;;;;;9.70;4.90;;;4.20;97.70;;;1.61;100.00;98413.06;5047120;28;20068;-85
2021/11/28 01:09:14;;;;;;;10.88;4.80;;;4.20;98.00;;;1.70;100.00;98420.84;5048559;28;20053;-85
2021/11/28 01:11:42;;;;;;;16.33;5.68;;;4.10;98.20;;;1.79;100.00;98421.63;5048446;28;20098;-85
2021/11/28 01:14:10;;;;;;;11.68;5.40;;;4.20;98.60;;;1.87;100.00;98424.25;5047340;28;20122;-85
2021/11/28 01:16:37;;;;;;;11.25;5.90;;;4.10;98.80;;;1.90;100.00;98415.81;5021178;28;20129;-85
2021/11/28 01:19:06;;;;;;;17.10;5.38;;;4.20;98.90;;;1.97;100.00;98425.84;5028552;28;20037;-85
2021/11/28 01:21:33;;;;;;;15.02;5.50;;;4.20;99.10;;;2.07;100.00;98427.25;5028635;28;20053;-85
2021/11/28 01:24:01;;;;;;;18.60;7.35;;;4.20;99.20;;;2.09;100.00;98429.75;5028253;28;20038;-85
2021/11/28 01:26:31;;;;;;;12.95;6.03;;;4.20;99.20;;;2.14;100.00;98430.03;5026886;28;20056;-85
2021/11/28 01:28:59;;;;;;;11.35;5.32;;;4.30;99.40;;;2.11;100.00;98430.41;5028441;28;20046;-85
2021/11/28 01:31:29;;;;;;;12.60;5.38;;;4.30;99.40;;;2.14;100.00;98436.25;5027213;28;20049;-85
2021/11/28 01:33:56;;;;;;;10.93;5.10;;;4.30;99.40;;;2.17;100.00;98444.94;5036892;28;20558;-85
2021/11/28 01:36:25;;;;;;;16.85;5.68;;;4.30;99.40;;;2.20;100.00;98433.84;5030120;28;20764;-86
2021/11/28 01:38:52;;;;;;;11.38;5.07;;;4.30;99.60;;;2.22;100.00;98435.31;5030191;28;20048;-85
2021/11/28 01:41:19;;;;;;;12.80;4.95;;;4.40;99.60;;;2.19;100.00;98443.75;5026736;28;20627;-85
2021/11/28 01:43:50;;;;;;;13.13;5.07;;;4.40;99.60;;;2.17;100.00;98447.63;5039875;28;20515;-85
2021/11/28 01:46:19;;;;;;;11.88;5.10;;;4.40;99.70;;;2.21;100.00;98436.34;5027952;28;20064;-85
2021/11/28 01:48:48;;;;;;;11.15;4.15;;;4.40;99.70;;;2.24;100.00;98440.50;5034025;28;20505;-85
2021/11/28 01:51:15;;;;;;;13.90;5.00;;;4.40;99.80;;;2.24;100.00;98438.66;5033974;28;20052;-85
2021/11/28 01:53:45;;;;;;;13.25;5.10;;;4.40;99.80;;;2.27;100.00;98430.25;5050770;28;20072;-85
2021/11/28 01:56:12;;;;;;;11.05;5.35;;;4.40;99.90;;;2.30;100.00;98429.91;5051659;28;20501;-86
2021/11/28 01:58:40;;;;;;;11.65;4.97;;;4.40;99.90;;;2.32;100.00;98438.59;5034122;28;20083;-85
2021/11/28 02:01:12;;;;;;;15.52;5.07;;;4.40;99.90;;;2.29;100.00;98441.63;5049414;28;20045;-85
2021/11/28 02:03:43;;;;;;;10.95;4.75;;;4.50;99.90;;;2.28;100.00;98441.81;5042184;28;20067;-85
2021/11/28 02:06:13;;;;;;;14.50;5.65;;;4.50;99.90;;;2.28;100.00;98442.63;5051483;28;20056;-85
2021/11/28 02:08:44;;;;;;;14.07;6.30;;;4.50;99.90;;;2.31;100.00;98439.59;5051765;28;20128;-86
2021/11/28 02:11:13;;;;;;;16.50;6.10;;;4.50;99.90;;;2.32;100.00;98438.59;5050090;28;20150;-85
2021/11/28 02:13:41;;;;;;;13.02;5.68;;;4.50;99.90;;;2.34;100.00;98433.88;5033761;28;20057;-85
2021/11/28 02:16:12;;;;;;;10.88;5.25;;;4.50;99.90;;;2.34;100.00;98436.56;5033054;28;20053;-84
2021/11/28 02:18:40;;;;;;;13.63;5.20;;;4.50;99.90;;;2.39;100.00;98437.84;5032781;28;20128;-85
2021/11/28 02:21:11;;;;;;;10.95;5.13;;;4.50;99.90;;;2.38;100.00;98439.72;5013567;28;20076;-86
2021/11/28 02:23:41;;;;;;;16.23;5.50;;;4.50;99.90;;;2.28;100.00;98428.41;5013452;28;20068;-85
2021/11/28 02:26:14;;;;;;;9.82;5.13;;;4.50;99.90;;;2.24;100.00;98427.09;5013277;28;20073;-85
2021/11/28 02:28:44;;;;;;;14.35;5.70;;;4.50;99.90;;;2.19;100.00;98432.16;5013601;28;20136;-85
2021/11/28 02:31:11;;;;;;;11.32;5.35;;;4.50;99.90;;;2.09;100.00;98437.78;5013620;28;20115;-86
2021/11/28 02:33:39;;;;;;;10.73;5.28;;;4.50;99.70;;;2.00;100.00;98434.38;5014627;28;20049;-85
2021/11/28 02:36:09;;;;;;;12.55;5.85;;;4.40;99.50;;;1.91;100.00;98447.00;5017567;28;20091;-86
2021/11/28 02:38:37;;;;;;;12.17;5.67;;;4.40;99.40;;;1.78;100.00;98445.94;5051746;28;20125;-85
2021/11/28 02:41:05;;;;;;;10.65;5.18;;;4.40;99.30;;;1.69;100.00;98439.81;5044618;28;20330;-85
2021/11/28 02:43:37;;;;;;;9.57;5.05;;;4.30;99.30;;;1.64;100.00;98435.00;5013345;28;20413;-85
2021/11/28 02:46:09;;;;;;;12.13;5.55;;;4.30;99.30;;;1.58;100.00;98425.00;5012898;28;20103;-85
2021/11/28 02:48:37;;;;;;;11.13;5.13;;;4.20;99.10;;;1.52;100.00;98429.22;5030910;28;20057;-85
2021/11/28 02:51:05;;;;;;;13.18;6.15;;;4.20;99.20;;;1.50;100.00;98439.25;5015705;28;20136;-86
2021/11/28 02:53:35;;;;;;;12.35;6.10;;;4.10;99.20;;;1.50;100.00;98433.88;5013357;28;20037;-85
2021/11/28 02:56:03;;;;;;;10.40;4.95;;;4.10;99.30;;;1.53;100.00;98438.91;5011898;28;20087;-85
2021/11/28 02:58:35;;;;;;;11.88;5.65;;;4.00;99.40;;;1.51;100.00;98435.56;5030910;28;20037;-85
2021/11/28 03:01:07;;;;;;;10.13;5.10;;;4.10;99.50;;;1.45;100.00;98432.78;5012953;28;20041;-85
2021/11/28 03:03:35;;;;;;;12.77;4.95;;;4.00;99.30;;;1.44;100.00;98445.34;5017082;28;20595;-85
2021/11/28 03:06:02;;;;;;;13.93;5.43;;;4.00;99.30;;;1.40;100.00;98438.66;5041048;28;20084;-85
2021/11/28 03:08:30;;;;;;;10.55;5.32;;;3.90;99.40;;;1.41;100.00;98429.63;5050977;28;20045;-86
2021/11/28 03:10:59;;;;;;;13.65;5.13;;;3.90;99.50;;;1.40;100.00;98437.84;5032721;28;20095;-85
2021/11/28 03:13:31;;;;;;;11.27;5.22;;;3.90;99.50;;;1.38;100.00;98440.69;5047786;28;20045;-85
2021/11/28 03:16:01;;;;;;;13.15;5.90;;;3.90;99.60;;;1.44;100.00;98444.50;5032365;28;20051;-84
2021/11/28 03:18:30;;;;;;;12.27;5.67;;;3.90;99.80;;;1.49;100.00;98453.69;5031778;28;20157;-85
2021/11/28 03:21:00;;;;;;;9.07;5.25;;;3.90;99.90;;;1.54;100.00;98454.00;5024008;28;20053;-85
2021/11/28 03:23:33;;;;;;;13.05;5.30;;;3.90;99.90;;;1.53;100.00;98452.31;5032288;28;20045;-85
2021/11/28 03:26:12;;;;;;;11.48;5.60;;;4.00;99.90;;;1.54;100.00;98451.31;5047692;28;20118;-85
2021/11/28 03:28:43;;;;;;;15.27;6.25;;;3.90;99.90;;;1.55;100.00;98455.66;5040614;28;20048;-86
2021/11/28 03:31:12;;;;;;;11.77;5.82;;;3.90;99.90;;;1.64;100.00;98455.56;5032289;28;20417;-85
2021/11/28 03:33:58;;;;;;;16.40;7.07;;;3.90;99.90;;;1.73;100.00;98462.56;5041212;28;20060;-84
2021/11/28 03:36:35;;;;;;;17.23;5.95;;;3.90;99.90;;;1.77;100.00;98461.19;5012552;28;20124;-85
2021/11/28 03:39:05;;;;;;;13.98;6.38;;;3.90;99.90;;;1.83;100.00;98459.63;5012826;28;20073;-86
2021/11/28 03:41:35;;;;;;;14.18;6.82;;;4.00;99.90;;;1.88;100.00;98457.25;5021076;28;20052;-85
2021/11/28 03:44:04;;;;;;;12.45;6.57;;;4.00;99.90;;;1.88;100.00;98460.75;5022149;28;20039;-85
2021/11/28 03:46:38;;;;;;;9.35;5.40;;;4.00;99.90;;;1.90;100.00;98461.41;5027787;28;20044;-85
2021/11/28 03:49:06;;;;;;;13.98;6.07;;;4.00;99.90;;;1.92;100.00;98467.47;5019747;28;20045;-85
2021/11/28 03:51:34;;;;;;;10.65;5.60;;;4.00;99.90;;;1.89;100.00;98466.97;5012119;28;20589;-86
2021/11/28 03:54:04;;;;;;;15.07;6.03;;;4.00;99.90;;;1.85;100.00;98473.72;5011816;28;20064;-85
2021/11/28 03:56:32;;;;;;;11.73;5.10;;;4.00;99.90;;;1.87;100.00;98467.16;5012134;28;20417;-86
2021/11/28 03:59:02;;;;;;;17.63;5.72;;;4.00;99.90;;;1.86;100.00;98476.19;5011797;28;20108;-85
2021/11/28 04:01:29;;;;;;;11.50;5.70;;;4.00;99.90;;;1.85;100.00;98476.41;5012129;28;20045;-85
2021/11/28 04:03:56;;;;;;;11.75;6.38;;;4.10;99.90;;;1.87;100.00;98471.69;5016669;28;20432;-85
2021/11/28 04:07:02;;;;;;;14.57;5.78;;;4.10;99.90;;;1.89;100.00;98475.84;5041268;28;20053;-85
2021/11/28 04:09:30;;;;;;;15.30;5.72;;;4.10;99.90;;;1.92;100.00;98478.19;5031561;28;20059;-85
2021/11/28 04:11:59;;;;;;;13.80;6.25;;;4.10;99.90;;;1.91;100.00;98476.50;5031720;28;20053;-85
2021/11/28 04:14:28;;;;;;;12.00;6.40;;;4.10;99.90;;;1.95;100.00;98477.00;5031249;28;20053;-84
2021/11/28 04:16:55;;;;;;;14.68;6.30;;;4.20;99.90;;;1.99;100.00;98480.16;5031635;28;20053;-85
2021/11/28 04:19:25;;;;;;;15.38;6.57;;;4.10;99.90;;;1.94;100.00;98481.53;5048177;28;20135;-85
2021/11/28 04:21:52;;;;;;;14.68;6.38;;;4.20;99.90;;;2.02;100.00;98490.50;5021639;28;20594;-85
2021/11/28 04:24:20;;;;;;;15.27;6.60;;;4.20;99.90;;;2.03;100.00;98489.50;5047610;28;20084;-85
2021/11/28 04:26:47;;;;;;;15.65;7.03;;;4.20;99.90;;;2.01;100.00;98488.84;5031150;28;20075;-85
2021/11/28 04:29:17;;;;;;;15.05;6.55;;;4.20;99.90;;;2.04;100.00;98489.31;5047886;28;20103;-85
2021/11/28 04:31:47;;;;;;;13.50;6.50;;;4.20;99.90;;;2.05;100.00;98496.34;5047840;28;20080;-85
2021/11/28 04:34:15;;;;;;;14.95;6.70;;;4.20;99.90;;;2.06;100.00;98499.88;5036370;28;20052;-85
2021/11/28 04:36:44;;;;;;;13.18;6.05;;;4.30;99.90;;;2.06;100.00;98497.19;5011359;28;20033;-86
2021/11/28 04:39:11;;;;;;;14.02;6.10;;;4.30;99.90;;;2.08;100.00;98492.50;5028144;28;20467;-85
2021/11/28 04:41:39;;;;;;;15.77;6.55;;;4.30;99.90;;;2.13;100.00;98495.44;5030816;28;20049;-86
2021/11/28 04:44:07;;;;;;;13.05;5.43;;;4.30;99.90;;;2.15;100.00;98499.63;5030787;28;20417;-85
2021/11/28 04:46:37;;;;;;;13.45;6.43;;;4.20;99.90;;;2.15;100.00;98496.09;5031067;28;20059;-85
2021/11/28 04:49:06;;;;;;;11.00;6.00;;;4.20;99.90;;;2.17;100.00;98496.78;5030896;28;20045;-86
2021/11/28 04:51:38;;;;;;;16.17;5.88;;;4.30;99.90;;;2.12;100.00;98505.34;5029954;28;20061;-85
2021/11/28 04:54:08;;;;;;;12.43;5.68;;;4.20;99.90;;;2.06;100.00;98503.41;5027196;28;20552;-85
2021/11/28 04:56:36;;;;;;;11.20;5.47;;;4.30;99.90;;;2.11;100.00;98510.88;5011055;28;20092;-85
2021/11/28 04:59:03;;;;;;;8.75;5.18;;;4.30;99.90;;;2.08;100.00;98511.28;5028847;28;20038;-85
2021/11/28 05:01:37;;;;;;;14.43;5.70;;;4.30;99.90;;;2.06;100.00;98514.13;5011046;28;20592;-85
2021/11/28 05:04:20;;;;;;;12.10;6.20;;;4.30;99.90;;;2.08;100.00;98509.41;5010569;28;20053;-85
2021/11/28 05:06:48;;;;;;;13.25;6.15;;;4.30;99.90;;;2.10;100.00;98504.69;5039465;28;20450;-85
2021/11/28 05:09:15;;;;;;;11.80;6.03;;;4.30;99.90;;;2.12;100.00;98504.53;5048898;28;20081;-85
2021/11/28 05:11:43;;;;;;;15.13;6.13;;;4.30;99.90;;;2.09;100.00;98507.56;5030637;28;20416;-85
2021/11/28 05:14:11;;;;;;;14.00;5.75;;;4.30;99.90;;;2.10;100.00;98504.69;5029988;28;20064;-85
2021/11/28 05:16:40;;;;;;;12.70;5.80;;;4.30;99.90;;;2.09;100.00;98500.34;5030680;28;20849;-85
2021/11/28 05:19:10;;;;;;;13.25;5.88;;;4.30;99.90;;;2.12;100.00;98509.88;5048230;28;20420;-85
2021/11/28 05:21:48;;;;;;;11.82;6.10;;;4.30;99.90;;;2.12;100.00;98510.72;5028136;28;20045;-86
2021/11/28 05:24:19;;;;;;;11.98;5.65;;;4.40;99.90;;;2.12;100.00;98507.22;5024356;28;20049;-86
2021/11/28 05:26:49;;;;;;;15.30;6.60;;;4.40;99.90;;;2.12;100.00;98508.03;5030632;28;20056;-85
2021/11/28 05:29:18;;;;;;;14.65;6.32;;;4.40;99.90;;;2.14;100.00;98511.38;5030512;28;20075;-86
2021/11/28 05:31:47;;;;;;;13.05;5.70;;;4.40;99.90;;;2.17;100.00;98515.56;5048294;28;20047;-85
2021/11/28 05:34:23;;;;;;;8.98;5.20;;;4.40;99.90;;;2.18;100.00;98511.84;5048026;28;20067;-85
2021/11/28 05:37:22;;;;;;;14.77;6.45;;;4.50;99.90;;;2.20;100.00;98520.53;4976658;28;20090;-85
2021/11/28 05:39:54;;;;;;;13.48;6.07;;;4.40;99.90;;;2.20;100.00;98519.72;5036678;28;20061;-85
2021/11/28 05:42:21;;;;;;;16.33;5.65;;;4.40;99.90;;;2.20;100.00;98525.91;5025729;28;20057;-85
2021/11/28 05:44:51;;;;;;;12.75;5.80;;;4.40;99.90;;;2.15;100.00;98529.16;5030278;28;20045;-87
2021/11/28 05:47:37;;;;;;;11.82;6.05;;;4.40;99.90;;;2.15;100.00;98533.66;5048869;28;20052;-88
2021/11/28 05:50:17;;;;;;;12.52;5.93;;;4.40;99.90;;;2.14;100.00;98542.75;5047138;28;20451;-86
2021/11/28 05:52:51;;;;;;;13.25;5.72;;;4.30;99.90;;;2.14;100.00;98537.38;5046974;28;20424;-87
2021/11/28 05:55:19;;;;;;;15.20;6.03;;;4.40;99.90;;;2.10;100.00;98547.63;5025841;28;20502;-86
2021/11/28 05:57:51;;;;;;;11.20;5.72;;;4.40;99.90;;;2.10;100.00;98549.50;5018577;28;20056;-87
2021/11/28 06:00:21;;;;;;;14.50;6.05;;;4.40;99.90;;;2.09;100.00;98550.47;5010551;28;20452;-86
2021/11/28 06:03:01;;;;;;;14.98;6.43;;;4.40;99.90;;;2.15;100.00;98555.13;5010441;28;20520;-86
2021/11/28 06:05:35;;;;;;;13.65;6.90;;;4.40;99.90;;;2.15;100.00;98560.50;5028082;28;20077;-87
2021/11/28 06:08:16;;;;;;;11.00;5.72;;;4.40;99.90;;;2.20;100.00;98552.75;5010239;28;20049;-86
2021/11/28 06:10:47;;;;;;;12.57;6.25;;;4.40;99.90;;;2.23;100.00;98555.09;5021935;28;20049;-87
2021/11/28 06:13:14;;;;;;;15.48;6.85;;;4.40;99.90;;;2.27;100.00;98560.94;5023580;28;20041;-86
2021/11/28 06:15:47;;;;;;;14.43;6.20;;;4.40;99.90;;;2.29;100.00;98558.91;5046405;28;20063;-88
2021/11/28 06:18:50;;;;;;;14.40;6.60;;;4.40;99.90;;;2.25;100.00;98566.47;5024835;28;20401;-86
2021/11/28 06:21:44;;;;;;;16.30;7.07;;;4.40;99.90;;;2.26;100.00;98576.19;5016898;28;20049;-87
2021/11/28 06:24:28;;;;;;;12.68;6.60;;;4.40;99.90;;;2.25;100.00;98573.69;5029789;28;20055;-87
2021/11/28 06:27:21;;;;;;;15.27;6.40;;;4.40;99.90;;;2.28;100.00;98566.09;5032013;28;20077;-87
2021/11/28 06:29:51;;;;;;;15.10;6.50;;;4.40;99.90;;;2.22;100.00;98572.19;5028430;28;20099;-87
2021/11/28 06:32:26;;;;;;;13.00;6.30;;;4.40;99.90;;;2.20;100.00;98574.22;5049187;28;20094;-86
2021/11/28 06:35:12;;;;;;;15.50;7.03;;;4.40;99.90;;;2.23;100.00;98579.25;5032841;28;20151;-87
2021/11/28 06:38:00;;;;;;;12.90;6.40;;;4.40;99.90;;;2.24;100.00;98580.91;5023789;28;20060;-87
2021/11/28 06:40:48;;;;;;;12.45;6.38;;;4.40;99.90;;;2.17;100.00;98579.09;5049551;28;20048;-90
2021/11/28 06:43:19;;;;;;;12.10;6.32;;;4.40;99.90;;;2.18;100.00;98586.16;5030744;28;20517;-89
2021/11/28 06:45:47;;;;;;;13.13;6.03;;;4.50;99.90;;;2.19;100.00;98596.72;5029931;28;20101;-88
2021/11/28 06:48:14;;;;;;;11.73;6.03;;;4.40;99.90;;;2.17;100.00;98596.06;5013781;28;20064;-90
2021/11/28 06:51:02;;;;;;;13.13;6.53;;;4.40;99.90;;;2.13;100.00;98594.72;5007650;28;20063;-87
2021/11/28 06:53:35;;;;;;;15.02;6.85;;;4.40;99.90;;;2.16;100.00;98594.38;5012927;28;20045;-84
2021/11/28 06:56:22;;;;;;;13.57;7.03;;;4.40;99.90;;;2.22;100.00;98593.66;5045785;28;20048;-88
2021/11/28 06:58:51;;;;;;;13.18;6.80;;;4.40;99.90;;;2.25;100.00;98597.84;5049704;28;20049;-88
2021/11/28 07:01:18;;;;;;;18.15;7.25;;;4.40;99.90;;;2.28;100.00;98603.66;5049678;28;20049;-88
2021/11/28 07:04:01;;;;;;;13.85;6.75;;;4.40;99.90;;;2.27;100.00;98591.28;5032551;28;20051;-88
2021/11/28 07:07:04;;;;;;;14.48;7.03;;;4.40;99.90;;;2.19;100.00;98594.03;4988811;28;20050;-88
2021/11/28 07:09:33;;;;;;;13.55;6.45;;;4.50;99.90;;;2.19;100.00;98604.78;5021236;28;20126;-88
2021/11/28 07:12:01;;;;;;;11.88;6.38;;;4.40;99.90;;;2.20;100.00;98600.22;5031486;28;20570;-88
2021/11/28 07:14:30;;;;;;;17.00;7.32;;;4.40;99.90;;;2.21;100.00;98607.25;5047760;28;20429;-89
2021/11/28 07:16:57;;;;;;;17.38;7.18;;;4.40;99.90;;;2.20;100.00;98601.06;5032688;28;20146;-88
2021/11/28 07:19:25;;;;;;;14.82;6.70;;;4.40;99.90;;;2.18;100.00;98603.09;5032636;28;20047;-90
2021/11/28 07:22:10;;;;;;;10.68;5.75;;;4.40;99.90;;;2.15;100.00;98606.09;5050830;28;20056;-86
2021/11/28 07:24:41;;;;;;;14.23;6.28;;;4.40;99.90;;;2.14;100.00;98601.78;5032280;28;20065;-86
2021/11/28 07:27:10;;;;;;;15.02;6.70;;;4.40;99.90;;;2.21;100.00;98616.16;5032545;28;20489;-87
2021/11/28 07:29:39;;;;;;;13.90;7.53;;;4.40;99.90;;;2.23;100.00;98619.50;5031052;28;20053;-87
2021/11/28 07:32:09;;;;;;;11.75;6.60;;;4.40;99.90;;;2.21;100.00;98612.63;5033659;28;20045;-93
2021/11/28 07:34:55;;;;;;;13.23;7.00;;;4.40;99.90;;;2.26;100.00;98613.75;5039565;28;20168;-91
2021/11/28 07:37:45;;;;;;;15.38;7.10;;;4.40;99.90;;;2.28;100.00;98614.41;5037374;28;20049;-91
2021/11/28 07:40:14;;;;;;;15.48;6.80;;;4.50;99.90;;;2.35;100.00;98620.75;5029588;28;20049;-90
2021/11/28 07:42:50;;;;;;;18.73;7.57;;;4.50;99.90;;;2.35;100.00;98620.75;5048108;28;20061;-91
2021/11/28 07:45:49;;;;;;;14.77;6.60;;;4.50;99.90;;;2.42;100.00;98626.25;5017059;28;20048;-89
2021/11/28 07:48:36;;;;;;;16.10;7.28;;;4.50;99.90;;;2.41;100.00;98623.72;5039855;28;20418;-90
2021/11/28 07:51:13;;;;;;;13.88;6.70;;;4.60;99.90;;;2.43;100.00;98627.06;5028383;28;20089;-91
2021/11/28 07:53:41;;;;;;;11.88;6.53;;;4.60;99.90;;;2.46;100.00;98626.72;5022015;28;20045;-90
2021/11/28 07:56:09;;;;;;;12.48;7.32;;;4.60;99.90;;;2.44;100.00;98631.44;5021465;28;20060;-90
2021/11/28 07:59:10;;;;;;;16.48;8.55;;;4.60;99.90;;;2.42;100.00;98630.75;4992131;28;20148;-92
2021/11/28 08:01:42;;;;;;;14.02;7.60;;;4.60;99.90;;;2.34;100.00;98637.88;5038249;28;20049;-91
2021/11/28 08:04:28;;;;;;;16.77;9.48;;;4.50;99.90;;;2.33;100.00;98636.19;5038837;28;20587;-93
2021/11/28 08:07:14;;;;;;;20.02;8.55;;;4.50;99.90;;;2.33;100.00;98641.56;5040303;28;20060;-92
2021/11/28 08:10:01;;;;;;;25.35;10.07;;;4.50;99.90;;;2.38;100.00;98633.00;5039475;28;20683;-88
2021/11/28 08:12:29;;;;;;;15.98;7.43;;;4.50;99.90;;;2.39;100.00;98644.56;5013246;28;20104;-85
2021/11/28 08:14:58;;;;;;;16.45;8.65;;;4.60;99.90;;;2.42;100.00;98642.34;5024862;28;20139;-92
2021/11/28 08:17:26;;;;;;;13.63;7.68;;;4.60;99.90;;;2.45;100.00;98643.84;5033741;28;20524;-90
2021/11/28 08:19:53;;;;;;;16.13;8.20;;;4.60;99.90;;;2.52;100.00;98642.94;5041834;23;20049;-85
2021/11/28 08:22:21;;;;;;;17.17;8.13;;;4.60;99.90;;;2.49;100.00;98642.47;5006464;28;20077;-85
2021/11/28 08:24:48;;;;;;;14.75;7.43;;;4.60;99.90;;;2.58;100.00;98643.25;4988197;28;20054;-85
2021/11/28 08:27:17;;;;;;;14.07;7.57;;;4.60;99.90;;;2.61;100.00;98634.81;5005633;28;20099;-89
2021/11/28 08:29:45;;;;;;;16.17;7.97;;;4.70;99.90;;;2.66;100.00;98644.00;4988793;28;20108;-86
2021/11/28 08:32:32;;;;;;;14.52;7.70;;;4.70;99.90;;;2.69;100.00;98649.03;5006601;28;20056;-86
2021/11/28 08:35:22;;;;;;;11.55;6.97;;;4.70;99.90;;;2.70;100.00;98639.97;4974983;28;20435;-86
2021/11/28 08:37:50;;;;;;;16.35;8.10;;;4.70;99.90;;;2.78;100.00;98649.81;5004973;28;20143;-86
2021/11/28 08:40:20;;;;;;;16.20;8.23;;;4.80;99.90;;;2.80;100.00;98649.59;4988405;28;20617;-88
2021/11/28 08:42:48;;;;;;;12.93;6.95;;;4.80;99.90;;;2.87;100.00;98666.66;4987781;28;20772;-86
2021/11/28 08:45:18;;;;;;;14.35;7.60;;;4.80;99.90;;;2.89;100.00;98659.25;5020189;28;20048;-85
2021/11/28 08:47:48;;;;;;;12.68;7.32;;;4.80;99.90;;;2.92;100.00;98654.38;5023086;28;20049;-85
2021/11/28 08:50:17;;;;;;;11.18;7.13;;;4.80;99.90;;;2.96;100.00;98652.16;5007767;28;20046;-86
2021/11/28 08:52:46;;;;;;;14.15;7.63;;;4.90;99.90;;;2.98;100.00;98651.97;4988130;28;20045;-85
2021/11/28 08:55:15;;;;;;;13.60;7.40;;;4.90;99.90;;;3.03;100.00;98661.16;5004872;28;20128;-86
2021/11/28 08:57:43;;;;;;;11.88;6.53;;;4.90;99.90;;;3.05;100.00;98664.50;5004765;28;20050;-86
2021/11/28 09:00:21;;;;;;;15.65;7.35;;;4.90;99.90;;;3.04;100.00;98665.50;5004716;28;20133;-86
2021/11/28 09:02:50;;;;;;;17.60;7.90;;;4.90;99.90;;;3.09;100.00;98671.19;5004259;28;20403;-85
2021/11/28 09:05:19;;;;;;;14.52;7.82;;;5.00;99.90;;;3.13;100.00;98666.28;5004739;28;20034;-86
2021/11/28 09:07:49;;;;;;;15.25;8.02;;;5.00;99.90;;;3.15;100.00;98664.25;5006038;28;20064;-86
2021/11/28 09:10:17;;;;;;;14.00;8.00;;;5.10;99.90;;;3.22;100.00;98669.69;5006233;28;20050;-86
2021/11/28 09:12:45;;;;;;;14.52;8.25;;;5.10;99.90;;;3.27;100.00;98667.31;5004470;28;20140;-86
2021/11/28 09:15:13;;;;;;;18.00;9.00;;;5.10;99.90;;;3.32;100.00;98672.97;5004029;28;20141;-86
2021/11/28 09:17:51;;;;;;;16.23;8.57;;;5.20;99.90;;;3.36;100.00;98671.59;4971943;28;20101;-86
2021/11/28 09:20:22;;;;;;;16.45;9.38;;;5.20;99.90;;;3.40;100.00;98670.19;4986612;28;20192;-86
2021/11/28 09:25:34;;;;;;;18.33;11.10;;;5.30;99.90;;;3.47;100.00;98673.00;4987382;28;20020;-87
2021/11/28 09:28:02;;;;;;;16.88;9.93;;;5.30;99.90;;;3.52;100.00;98671.44;5004635;28;20038;-87
2021/11/28 09:30:30;;;;;;;19.65;11.02;;;5.40;99.90;;;3.56;100.00;98677.28;5005615;28;20499;-86
2021/11/28 09:33:00;;;;;;;20.50;11.13;;;5.40;99.90;;;3.60;100.00;98677.72;5004120;28;20046;-86
2021/11/28 09:35:29;;;;;;;21.67;10.70;;;5.50;99.90;;;3.63;100.00;98680.06;4987372;28;20037;-86
2021/11/28 09:37:57;;;;;;;18.58;10.60;;;5.50;99.90;;;3.65;100.00;98681.53;4988088;28;20060;-86
2021/11/28 09:40:25;;;;;;;23.60;10.82;;;5.50;99.90;;;3.70;100.00;98694.44;4987920;28;20050;-86
2021/11/28 09:42:56;;;;;;;20.85;10.93;;;5.60;99.90;;;3.77;100.00;98687.28;5005083;28;20096;-86
2021/11/28 09:45:25;;;;;;;21.23;11.43;;;5.60;99.90;;;3.83;100.00;98691.09;5003958;28;20052;-85
2021/11/28 09:47:56;;;;;;;20.77;11.05;;;5.70;99.90;;;3.85;100.00;98692.56;5005887;28;20054;-86
2021/11/28 09:50:25;;;;;;;24.92;11.05;;;5.70;99.90;;;3.88;100.00;98700.28;5002898;28;20085;-85
2021/11/28 09:52:55;;;;;;;21.77;10.65;;;5.70;99.90;;;3.95;100.00;98696.84;4987351;28;20476;-86
2021/11/28 09:55:23;;;;;;;19.75;11.43;;;5.70;99.90;;;3.95;100.00;98699.53;5003500;28;20046;-86
2021/11/28 09:57:51;;;;;;;26.30;11.98;;;5.70;99.90;;;3.90;100.00;98698.25;5005404;28;20060;-86
2021/11/28 10:00:21;;;;;;;20.48;11.25;;;5.70;99.90;;;3.95;100.00;98702.22;5005504;28;20045;-86
2021/11/28 10:02:48;;;;;;;22.05;11.82;;;5.70;99.90;;;3.99;100.00;98700.81;4987579;28;20112;-86
2021/11/28 10:05:17;;;;;;;21.45;11.27;;;5.70;99.90;;;3.95;100.00;98694.16;5006019;28;20049;-86
2021/11/28 10:07:46;;;;;;;19.50;11.75;;;5.70;99.90;;;3.90;100.00;98690.16;5008675;28;20454;-86
2021/11/28 10:10:18;;;;;;;23.42;12.75;;;5.80;99.90;;;3.84;100.00;98688.19;5004688;28;20371;-87
2021/11/28 10:12:49;;;;;;;24.98;12.25;;;5.80;99.90;;;3.80;100.00;98692.28;5004790;28;20149;-86
2021/11/28 10:15:20;;;;;;;24.75;12.90;;;5.80;99.90;;;3.90;100.00;98695.53;5004436;28;20046;-86
2021/11/28 10:17:48;;;;;;;24.92;12.93;;;5.80;99.80;;;4.00;100.00;98694.41;4989608;28;20042;-86
2021/11/28 10:20:19;;;;;;;21.38;12.68;;;5.80;99.90;;;4.10;100.00;98690.41;5004818;28;20586;-86
2021/11/28 10:22:47;;;;;;;24.52;12.20;;;5.80;99.90;;;4.22;100.00;98687.22;5004913;28;20128;-89
2021/11/28 10:25:22;;;;;;;24.55;12.32;;;5.90;99.90;;;4.27;100.00;98687.50;5004987;28;20495;-89
2021/11/28 10:27:53;;;;;;;26.67;13.65;;;5.90;99.90;;;4.28;100.00;98692.72;5007557;28;20117;-89
2021/11/28 10:30:37;;;;;;;27.48;14.32;;;5.90;99.80;;;4.33;100.00;98683.22;5007824;28;20123;-89
2021/11/28 10:33:09;;;;;;;22.23;12.55;;;6.00;99.90;;;4.37;100.00;98679.13;5007416;28;20049;-89
2021/11/28 10:35:37;;;;;;;24.83;12.90;;;6.00;99.90;;;4.39;100.00;98682.47;4990992;28;20057;-89
2021/11/28 10:38:13;;;;;;;24.13;13.30;;;6.10;99.90;;;4.40;100.00;98673.34;5007656;28;20419;-89
2021/11/28 10:40:47;;;;;;;29.70;14.98;;;6.10;99.90;;;4.45;100.00;98681.69;4990355;28;20515;-89